YNWN

Details ICAO YNWN (ZNE)
Name Newman
Region Australia
Timezone Australia/Perth (UTC+8.0)
Plans Departing 2
Arriving 2
Stats Elevation 1,724 ft / 525 m (AMSL)
Location -23.418503° 119.803036°
Runways 1
Magnetic Variation 1.283° E
Sunrise 2017-12-11 21:09:16 UTC / 2017-12-12 05:09:16 Local
Sunset 2017-12-12 10:42:20 UTC / 2017-12-12 18:42:20 Local
Advertisement - Login to hide

Runways

ID Width Length Bearing (true) Bearing (mag) Surface Threshold Offset Overrun Length
05 98 ft / 30 m 6,803 ft / 2,074 m 55.67° 54.39° Asphalt 0 ft / 0 m 0 ft / 0 m
23 98 ft / 30 m 6,803 ft / 2,074 m 235.66° 234.38° Asphalt 0 ft / 0 m 0 ft / 0 m

Map

Weather


0- 5 10 15 20 25 30 35+ Temperature / ° C

Clouds and Precipitation
Forecast for 2017-12-12 18:00 UTC. Updated an hour ago

Ground ~20,000 ft ~40,000 ft Winds

METAR

YNWN 121400Z AUTO 27005KT 9999 // NCD 32/08 Q1011

TAF

Not found

Frequencies

Unicom 119.60 MHz ACTIVATE LIGHTS ONLY MULT
Unicom 126.70 MHz NEWMAN MULT
Unicom 123.40 MHz MELBOURNE CENTRE MULT
Warning: Do not use this data for real-world aviation or navigation. No guarantee of current accuracy is given.